Hannastown, Pennsylvania
Current Conditions -  °F | °C
As of 5:01 PM on Tuesday 21 Oct 2014 (Local Time) from KLBE Reporting Station
Light Rain Light Rain  
Wind Chill: 50°   Ceiling: 2700
Heat Index: 50°   Visibility: 10mi
Dew Point: 50°   Wind: 0mph
Humidity: 100%   Direction: NA
Pressure: 29.91"   Gusts: NA
Location:  40.35°N, 79.5°W
Report Text: KLBE 212101Z 00000KT 10SM -RA BKN027 OVC034 10/10 A2991
Loading
Personal Weather Stations






























Interactive Weather Map
Tropical Storm Tracking
New forecast layout! Learn more

10-Day Weather Forecast

Advertisements
Track Severe Weather on mobile